createdAt,value
2023-01-07T00:00:08.187Z,3.9
2023-01-07T00:01:08.726Z,4.0
2023-01-07T00:02:09.316Z,4.3
2023-01-07T00:03:09.908Z,3.9
2023-01-07T00:04:10.572Z,4.5
2023-01-07T00:05:11.120Z,4.9
2023-01-07T00:06:11.721Z,4.8
2023-01-07T00:07:12.309Z,5.1
2023-01-07T00:08:12.900Z,5.0
2023-01-07T00:09:13.492Z,5.5
2023-01-07T00:10:14.101Z,6.4
2023-01-07T00:11:14.692Z,5.8
2023-01-07T00:12:15.373Z,5.6
2023-01-07T00:13:15.913Z,5.7
2023-01-07T00:14:16.515Z,6.4
2023-01-07T00:15:17.099Z,6.3
2023-01-07T00:16:17.728Z,6.5
2023-01-07T00:17:18.316Z,6.5
2023-01-07T00:18:18.892Z,6.2
2023-01-07T00:19:19.486Z,6.6
2023-01-07T00:20:20.075Z,6.8
2023-01-07T00:21:20.673Z,7.1
2023-01-07T00:22:21.268Z,6.9
2023-01-07T00:23:21.859Z,6.8
2023-01-07T00:24:22.443Z,7.7
2023-01-07T00:25:23.035Z,7.4
2023-01-07T00:26:23.627Z,7.3
2023-01-07T00:27:24.292Z,7.5
2023-01-07T00:28:24.827Z,7.1
2023-01-07T00:29:25.434Z,8.0
2023-01-07T00:30:26.047Z,8.2
2023-01-07T00:31:26.737Z,7.9
2023-01-07T00:32:27.286Z,7.6
2023-01-07T00:33:27.881Z,8.2
2023-01-07T00:34:28.470Z,7.7
2023-01-07T00:35:29.058Z,8.0
2023-01-07T00:36:29.656Z,8.1
2023-01-07T00:37:30.264Z,8.7
2023-01-07T00:38:30.857Z,8.5
2023-01-07T00:39:31.456Z,8.6
2023-01-07T00:40:32.043Z,8.1
2023-01-07T00:41:32.633Z,8.1
2023-01-07T00:42:33.313Z,8.0
2023-01-07T00:43:33.836Z,7.7
2023-01-07T00:44:34.425Z,7.7
2023-01-07T00:45:35.039Z,7.0
2023-01-07T00:46:35.679Z,7.9
2023-01-07T00:47:36.264Z,7.3
2023-01-07T00:48:36.857Z,7.4
2023-01-07T00:49:37.459Z,7.5
2023-01-07T00:50:38.042Z,7.4
2023-01-07T00:51:38.633Z,7.1
2023-01-07T00:52:39.231Z,7.3
2023-01-07T00:53:39.822Z,6.9
2023-01-07T00:54:40.419Z,6.7
2023-01-07T00:55:41.008Z,6.9
2023-01-07T00:56:41.599Z,6.5
2023-01-07T00:57:42.273Z,6.6
2023-01-07T00:58:42.820Z,6.9
2023-01-07T00:59:43.422Z,6.6
2023-01-07T01:00:44.132Z,6.8
2023-01-07T01:01:44.883Z,6.4
2023-01-07T01:02:45.305Z,6.4
2023-01-07T01:03:45.872Z,6.2
2023-01-07T01:04:46.469Z,6.3
2023-01-07T01:05:47.059Z,6.3
2023-01-07T01:06:47.657Z,6.3
2023-01-07T01:07:48.261Z,6.5
2023-01-07T01:08:48.855Z,6.2
2023-01-07T01:09:49.472Z,7.7
2023-01-07T01:10:50.080Z,6.7
2023-01-07T01:11:50.699Z,6.7
2023-01-07T01:12:51.352Z,6.6
2023-01-07T01:13:51.888Z,6.3
2023-01-07T01:14:52.485Z,5.8
2023-01-07T01:15:53.143Z,6.5
2023-01-07T01:16:53.752Z,6.1
2023-01-07T01:17:54.354Z,6.6
2023-01-07T01:18:54.923Z,7.0
2023-01-07T01:19:55.515Z,6.1
2023-01-07T01:20:56.126Z,6.5
2023-01-07T01:21:56.700Z,6.4
2023-01-07T01:22:57.298Z,6.6
2023-01-07T01:23:57.909Z,6.4
2023-01-07T01:24:58.510Z,6.4
2023-01-07T01:25:59.083Z,6.9
2023-01-07T01:26:59.680Z,6.6
2023-01-07T01:28:00.332Z,6.1
2023-01-07T01:29:00.872Z,6.7
2023-01-07T01:30:01.478Z,7.3
2023-01-07T01:31:02.122Z,6.9
2023-01-07T01:32:02.664Z,6.6
2023-01-07T01:33:03.260Z,6.5
2023-01-07T01:34:03.852Z,7.3
2023-01-07T01:35:04.456Z,6.9
2023-01-07T01:36:05.037Z,6.8
2023-01-07T01:37:05.655Z,6.6
2023-01-07T01:38:06.241Z,6.7
2023-01-07T01:39:06.835Z,6.5
2023-01-07T01:40:07.441Z,7.0
2023-01-07T01:41:08.019Z,6.6
2023-01-07T01:42:08.613Z,6.7
2023-01-07T01:43:09.276Z,6.7
2023-01-07T01:44:09.810Z,6.8
2023-01-07T01:45:10.407Z,6.9
2023-01-07T01:46:10.995Z,7.3
2023-01-07T01:47:11.586Z,7.0
2023-01-07T01:48:12.185Z,7.1
2023-01-07T01:49:12.803Z,6.5
2023-01-07T01:50:13.391Z,7.2
2023-01-07T01:51:13.976Z,6.7
2023-01-07T01:52:14.572Z,7.0
2023-01-07T01:53:15.164Z,8.9
2023-01-07T01:54:15.759Z,7.5
2023-01-07T01:55:16.369Z,6.4
2023-01-07T01:56:16.959Z,6.4
2023-01-07T01:57:17.584Z,6.5
2023-01-07T01:58:18.281Z,6.8
2023-01-07T01:59:18.800Z,6.5
2023-01-07T02:00:19.406Z,6.3
2023-01-07T02:01:20.144Z,6.5
2023-01-07T02:02:20.762Z,5.7
2023-01-07T02:03:21.367Z,6.9
2023-01-07T02:04:21.948Z,6.1
2023-01-07T02:05:22.560Z,6.7
2023-01-07T02:06:23.147Z,6.8
2023-01-07T02:07:23.744Z,6.7
2023-01-07T02:08:24.333Z,8.5
2023-01-07T02:09:24.922Z,6.8
2023-01-07T02:10:25.529Z,6.7
2023-01-07T02:11:26.121Z,6.9
2023-01-07T02:12:26.740Z,6.7
2023-01-07T02:13:27.395Z,6.7
2023-01-07T02:14:27.932Z,6.8
2023-01-07T02:15:28.526Z,6.1
2023-01-07T02:16:29.146Z,6.6
2023-01-07T02:17:29.721Z,7.0
2023-01-07T02:18:30.314Z,6.9
2023-01-07T02:19:30.905Z,6.7
2023-01-07T02:20:31.497Z,6.9
2023-01-07T02:21:32.095Z,6.9
2023-01-07T02:22:32.683Z,6.9
2023-01-07T02:23:33.277Z,7.0
2023-01-07T02:24:33.866Z,6.9
2023-01-07T02:25:34.490Z,6.3
2023-01-07T02:26:35.079Z,7.0
2023-01-07T02:27:35.664Z,6.9
2023-01-07T02:28:36.341Z,6.4
2023-01-07T02:29:36.880Z,6.6
2023-01-07T02:30:37.471Z,6.7
2023-01-07T02:31:38.095Z,5.8
2023-01-07T02:32:38.676Z,5.7
2023-01-07T02:33:39.283Z,5.6
2023-01-07T02:34:39.859Z,5.7
2023-01-07T02:35:40.456Z,5.6
2023-01-07T02:36:41.045Z,5.2
2023-01-07T02:37:41.641Z,5.6
2023-01-07T02:38:42.253Z,4.4
2023-01-07T02:39:42.823Z,5.3
2023-01-07T02:40:43.416Z,5.4
2023-01-07T02:41:44.005Z,5.1
2023-01-07T02:42:44.597Z,4.6
2023-01-07T02:43:45.256Z,5.3
2023-01-07T02:44:45.796Z,4.8
2023-01-07T02:45:46.453Z,5.0
2023-01-07T02:46:46.995Z,5.1
2023-01-07T02:47:47.613Z,4.8
2023-01-07T02:48:48.203Z,4.9
2023-01-07T02:49:48.812Z,4.9
2023-01-07T02:50:49.386Z,5.3
2023-01-07T02:51:49.975Z,4.5
2023-01-07T02:52:50.569Z,5.0
2023-01-07T02:53:51.160Z,4.6
2023-01-07T02:54:51.753Z,4.8
2023-01-07T02:55:52.364Z,4.7
2023-01-07T02:56:52.960Z,4.6
2023-01-07T02:57:53.550Z,4.6
2023-01-07T02:58:54.212Z,4.4
2023-01-07T02:59:54.748Z,4.5
2023-01-07T03:00:55.406Z,4.4
2023-01-07T03:01:56.104Z,4.3
2023-01-07T03:02:56.613Z,4.7
2023-01-07T03:03:57.252Z,4.0
2023-01-07T03:04:57.808Z,4.4
2023-01-07T03:05:58.447Z,4.3
2023-01-07T03:06:59.039Z,3.6
2023-01-07T03:07:59.629Z,4.0
2023-01-07T03:09:00.223Z,3.8
2023-01-07T03:10:00.828Z,3.8
2023-01-07T03:11:01.427Z,4.0
2023-01-07T03:12:02.018Z,4.2
2023-01-07T03:13:02.610Z,3.5
2023-01-07T03:14:03.287Z,3.5
2023-01-07T03:15:03.807Z,3.4
2023-01-07T03:16:04.469Z,3.7
2023-01-07T03:17:05.007Z,3.2
2023-01-07T03:18:05.599Z,3.5
2023-01-07T03:19:06.189Z,3.8
2023-01-07T03:20:06.798Z,3.7
2023-01-07T03:21:07.395Z,3.2
2023-01-07T03:22:07.989Z,3.3
2023-01-07T03:23:08.580Z,3.0
2023-01-07T03:24:09.174Z,3.0
2023-01-07T03:25:09.766Z,3.0
2023-01-07T03:26:10.361Z,3.2
2023-01-07T03:27:10.954Z,3.0
2023-01-07T03:28:11.542Z,3.0
2023-01-07T03:29:12.206Z,3.0
2023-01-07T03:30:12.748Z,2.8
2023-01-07T03:31:13.335Z,2.6
2023-01-07T03:32:13.944Z,2.7
2023-01-07T03:33:14.539Z,2.4
2023-01-07T03:34:15.131Z,2.6
2023-01-07T03:35:15.730Z,2.5
2023-01-07T03:36:16.327Z,2.7
2023-01-07T03:37:16.923Z,2.2
2023-01-07T03:38:17.500Z,2.3
2023-01-07T03:39:18.094Z,2.4
2023-01-07T03:40:18.692Z,2.3
2023-01-07T03:41:19.299Z,2.6
2023-01-07T03:42:19.960Z,2.2
2023-01-07T03:43:20.562Z,2.6
2023-01-07T03:44:21.216Z,2.1
2023-01-07T03:45:21.763Z,1.9
2023-01-07T03:46:22.341Z,2.1
2023-01-07T03:47:22.933Z,2.1
2023-01-07T03:48:23.526Z,2.3
2023-01-07T03:49:24.118Z,1.9
2023-01-07T03:50:24.715Z,2.2
2023-01-07T03:51:25.316Z,2.2
2023-01-07T03:52:25.896Z,2.0
2023-01-07T03:53:26.490Z,1.9
2023-01-07T03:54:27.081Z,1.9
2023-01-07T03:55:27.691Z,1.9
2023-01-07T03:56:28.279Z,2.0
2023-01-07T03:57:28.884Z,1.9
2023-01-07T03:58:29.467Z,2.6
2023-01-07T03:59:30.125Z,3.9
2023-01-07T04:00:30.662Z,1.6
2023-01-07T04:01:31.368Z,1.7
2023-01-07T04:02:31.939Z,1.7
2023-01-07T04:03:32.519Z,1.8
2023-01-07T04:04:33.138Z,1.6
2023-01-07T04:05:33.706Z,1.6
2023-01-07T04:06:34.310Z,1.6
2023-01-07T04:07:34.910Z,1.6
2023-01-07T04:08:35.502Z,1.8
2023-01-07T04:09:36.102Z,1.7
2023-01-07T04:10:36.688Z,1.5
2023-01-07T04:11:37.287Z,1.5
2023-01-07T04:12:37.874Z,1.9
2023-01-07T04:13:38.469Z,1.2
2023-01-07T04:14:39.122Z,1.5
2023-01-07T04:15:39.665Z,1.5
2023-01-07T04:16:40.314Z,1.3
2023-01-07T04:17:40.895Z,1.2
2023-01-07T04:18:41.558Z,1.3
2023-01-07T04:19:42.155Z,1.2
2023-01-07T04:20:42.746Z,1.3
2023-01-07T04:21:43.337Z,1.2
2023-01-07T04:22:43.933Z,1.3
2023-01-07T04:23:44.525Z,1.5
2023-01-07T04:24:45.117Z,1.3
2023-01-07T04:25:45.710Z,1.1
2023-01-07T04:26:46.297Z,1.3
2023-01-07T04:27:46.893Z,1.0
2023-01-07T04:28:47.484Z,1.1
2023-01-07T04:29:48.075Z,1.2
2023-01-07T04:30:48.674Z,1.2
2023-01-07T04:31:49.262Z,1.1
2023-01-07T04:32:49.853Z,1.0
2023-01-07T04:33:50.449Z,1.1
2023-01-07T04:34:51.039Z,1.2
2023-01-07T04:35:51.634Z,1.0
2023-01-07T04:36:52.224Z,1.0
2023-01-07T04:37:52.838Z,1.3
2023-01-07T04:38:53.430Z,0.9
2023-01-07T04:39:54.020Z,0.9
2023-01-07T04:40:54.611Z,1.0
2023-01-07T04:41:55.205Z,1.0
2023-01-07T04:42:55.797Z,1.0
2023-01-07T04:43:56.391Z,0.9
2023-01-07T04:44:57.052Z,1.1
2023-01-07T04:45:57.629Z,1.0
2023-01-07T04:46:58.191Z,1.0
2023-01-07T04:47:58.791Z,0.9
2023-01-07T04:48:59.376Z,0.9
2023-01-07T04:49:59.973Z,0.9
2023-01-07T04:51:00.573Z,1.0
2023-01-07T04:52:01.149Z,0.9
2023-01-07T04:53:01.776Z,1.0
2023-01-07T04:54:02.362Z,1.0
2023-01-07T04:55:02.948Z,1.1
2023-01-07T04:56:03.560Z,1.0
2023-01-07T04:57:04.133Z,0.9
2023-01-07T04:58:04.726Z,0.9
2023-01-07T04:59:05.325Z,1.0
2023-01-07T05:00:05.977Z,0.8
2023-01-07T05:01:06.566Z,0.9
2023-01-07T05:02:07.170Z,0.9
2023-01-07T05:03:07.735Z,0.8
2023-01-07T05:04:08.388Z,0.8
2023-01-07T05:05:08.935Z,0.8
2023-01-07T05:06:09.549Z,0.8
2023-01-07T05:07:10.115Z,0.8
2023-01-07T05:08:10.712Z,1.0
2023-01-07T05:09:11.304Z,0.9
2023-01-07T05:10:11.898Z,0.8
2023-01-07T05:11:12.488Z,0.9
2023-01-07T05:12:13.077Z,0.7
2023-01-07T05:13:13.670Z,0.8
2023-01-07T05:14:14.260Z,0.9
2023-01-07T05:15:14.920Z,0.8
2023-01-07T05:16:15.469Z,0.9
2023-01-07T05:17:16.052Z,0.9
2023-01-07T05:18:16.645Z,0.9
2023-01-07T05:19:17.339Z,1.0
2023-01-07T05:20:17.944Z,0.9
2023-01-07T05:21:18.522Z,1.0
2023-01-07T05:22:19.124Z,1.0
2023-01-07T05:23:19.705Z,1.0
2023-01-07T05:24:20.298Z,1.2
2023-01-07T05:25:20.893Z,0.8
2023-01-07T05:26:21.502Z,0.8
2023-01-07T05:27:22.091Z,0.8
2023-01-07T05:28:22.707Z,0.9
2023-01-07T05:29:23.305Z,1.2
2023-01-07T05:30:23.956Z,0.9
2023-01-07T05:31:24.495Z,0.9
2023-01-07T05:32:25.088Z,0.9
2023-01-07T05:33:25.677Z,1.1
2023-01-07T05:34:26.294Z,1.0
2023-01-07T05:35:26.883Z,1.0
2023-01-07T05:36:27.476Z,0.9
2023-01-07T05:37:28.076Z,1.1
2023-01-07T05:38:28.657Z,1.0
2023-01-07T05:39:29.250Z,1.4
2023-01-07T05:40:29.842Z,1.1
2023-01-07T05:41:30.434Z,1.1
2023-01-07T05:42:31.026Z,1.0
2023-01-07T05:43:31.615Z,1.2
2023-01-07T05:44:32.225Z,1.1
2023-01-07T05:45:32.889Z,1.4
2023-01-07T05:46:33.500Z,1.1
2023-01-07T05:47:34.060Z,1.3
2023-01-07T05:48:34.654Z,1.2
2023-01-07T05:49:35.260Z,1.2
2023-01-07T05:50:35.855Z,1.2
2023-01-07T05:51:36.455Z,1.1
2023-01-07T05:52:37.062Z,1.1
2023-01-07T05:53:37.633Z,1.1
2023-01-07T05:54:38.221Z,1.2
2023-01-07T05:55:38.817Z,1.3
2023-01-07T05:56:39.406Z,1.3
2023-01-07T05:57:40.050Z,1.2
2023-01-07T05:58:40.641Z,1.3
2023-01-07T05:59:41.258Z,1.2
2023-01-07T06:00:41.943Z,1.5
2023-01-07T06:01:42.481Z,1.3
2023-01-07T06:02:43.072Z,1.3
2023-01-07T06:03:43.706Z,1.3
2023-01-07T06:04:44.296Z,1.4
2023-01-07T06:05:44.845Z,1.4
2023-01-07T06:06:45.438Z,1.2
2023-01-07T06:07:46.029Z,1.2
2023-01-07T06:08:46.622Z,1.3
2023-01-07T06:09:47.239Z,1.4
2023-01-07T06:10:47.833Z,1.2
2023-01-07T06:11:48.424Z,1.2
2023-01-07T06:12:49.011Z,1.1
2023-01-07T06:13:49.607Z,1.4
2023-01-07T06:14:50.377Z,1.3
2023-01-07T06:15:51.135Z,1.3
2023-01-07T06:16:51.588Z,1.5
2023-01-07T06:17:52.170Z,1.1
2023-01-07T06:18:52.791Z,1.5
2023-01-07T06:19:53.355Z,1.2
2023-01-07T06:20:53.953Z,1.3
2023-01-07T06:21:54.558Z,1.4
2023-01-07T06:22:55.156Z,1.4
2023-01-07T06:23:55.746Z,1.5
2023-01-07T06:24:56.336Z,1.7
2023-01-07T06:25:56.936Z,1.3
2023-01-07T06:26:57.523Z,1.3
2023-01-07T06:27:58.132Z,1.4
2023-01-07T06:28:58.721Z,1.2
2023-01-07T06:29:59.326Z,1.2
2023-01-07T06:31:00.096Z,1.4
2023-01-07T06:32:00.541Z,1.3
2023-01-07T06:33:01.130Z,1.4
2023-01-07T06:34:01.717Z,1.5
2023-01-07T06:35:02.307Z,1.5
2023-01-07T06:36:02.903Z,2.2
2023-01-07T06:37:03.488Z,1.5
2023-01-07T06:38:04.084Z,1.5
2023-01-07T06:39:04.678Z,1.2
2023-01-07T06:40:05.283Z,1.6
2023-01-07T06:41:05.892Z,1.4
2023-01-07T06:42:06.483Z,1.2
2023-01-07T06:43:07.085Z,1.3
2023-01-07T06:44:07.676Z,1.6
2023-01-07T06:45:08.274Z,1.3
2023-01-07T06:46:08.940Z,1.7
2023-01-07T06:47:09.501Z,1.1
2023-01-07T06:48:10.091Z,1.4
2023-01-07T06:49:10.706Z,1.6
2023-01-07T06:50:11.367Z,2.0
2023-01-07T06:51:11.958Z,1.5
2023-01-07T06:52:12.553Z,1.2
2023-01-07T06:53:13.137Z,1.2
2023-01-07T06:54:13.729Z,1.3
2023-01-07T06:55:14.339Z,1.4
2023-01-07T06:56:14.922Z,1.0
2023-01-07T06:57:15.512Z,1.4
2023-01-07T06:58:16.101Z,1.1
2023-01-07T06:59:16.693Z,1.1
2023-01-07T07:00:17.299Z,1.6
2023-01-07T07:01:18.062Z,1.2
2023-01-07T07:02:18.618Z,1.5
2023-01-07T07:03:19.108Z,1.5
2023-01-07T07:04:19.680Z,1.4
2023-01-07T07:05:20.275Z,1.5
2023-01-07T07:06:20.889Z,1.1
2023-01-07T07:07:21.497Z,1.3
2023-01-07T07:08:22.095Z,1.3
2023-01-07T07:09:22.685Z,1.3
2023-01-07T07:10:23.309Z,0.9
2023-01-07T07:11:23.912Z,1.3
2023-01-07T07:12:24.541Z,1.1
2023-01-07T07:13:25.124Z,1.3
2023-01-07T07:14:25.722Z,1.2
2023-01-07T07:15:26.302Z,1.2
2023-01-07T07:16:27.052Z,1.3
2023-01-07T07:17:27.505Z,1.0
2023-01-07T07:18:28.105Z,1.1
2023-01-07T07:19:28.714Z,1.0
2023-01-07T07:20:29.342Z,1.1
2023-01-07T07:21:29.897Z,0.9
2023-01-07T07:22:30.492Z,1.0
2023-01-07T07:23:31.089Z,1.1
2023-01-07T07:24:31.686Z,0.9
2023-01-07T07:25:32.277Z,0.8
2023-01-07T07:26:32.878Z,0.9
2023-01-07T07:27:33.472Z,1.0
2023-01-07T07:28:34.085Z,0.8
2023-01-07T07:29:34.662Z,1.3
2023-01-07T07:30:47.013Z,0.9
2023-01-07T07:31:37.020Z,0.7
2023-01-07T07:32:37.454Z,0.8
2023-01-07T07:33:38.051Z,0.9
2023-01-07T07:34:38.647Z,0.7
2023-01-07T07:35:39.250Z,0.7
2023-01-07T07:36:39.852Z,0.8
2023-01-07T07:37:40.437Z,0.8
2023-01-07T07:38:41.035Z,0.8
2023-01-07T07:39:41.630Z,0.8
2023-01-07T07:40:42.232Z,0.8
2023-01-07T07:41:42.843Z,0.9
2023-01-07T07:43:11.216Z,0.8
2023-01-07T07:43:45.027Z,0.8
2023-01-07T07:44:45.627Z,0.7
2023-01-07T07:45:46.223Z,0.6
2023-01-07T07:46:46.963Z,0.7
2023-01-07T07:47:47.429Z,0.8
2023-01-07T07:48:48.032Z,0.8
2023-01-07T07:49:48.636Z,0.8
2023-01-07T07:50:49.222Z,0.8
2023-01-07T07:51:49.826Z,0.6
2023-01-07T07:52:50.415Z,0.6
2023-01-07T07:53:51.035Z,0.7
2023-01-07T07:54:51.659Z,0.6
2023-01-07T07:55:52.251Z,0.7
2023-01-07T07:56:52.859Z,0.8
2023-01-07T07:57:53.469Z,0.7
2023-01-07T07:58:54.112Z,0.6
2023-01-07T07:59:54.708Z,0.7
2023-01-07T08:00:55.361Z,0.8
2023-01-07T08:01:56.016Z,0.7
2023-01-07T08:02:56.560Z,0.8
2023-01-07T08:03:57.133Z,0.9
2023-01-07T08:04:57.726Z,0.7
2023-01-07T08:05:58.321Z,0.8
2023-01-07T08:06:58.921Z,0.7
2023-01-07T08:07:59.524Z,0.6
2023-01-07T08:09:00.121Z,0.8
2023-01-07T08:10:00.737Z,0.9
2023-01-07T08:11:01.309Z,0.9
2023-01-07T08:12:01.905Z,0.7
2023-01-07T08:13:02.503Z,0.9
2023-01-07T08:14:03.110Z,0.6
2023-01-07T08:15:03.702Z,0.8
2023-01-07T08:16:04.325Z,0.8
2023-01-07T08:17:04.954Z,1.0
2023-01-07T08:18:05.504Z,1.0
2023-01-07T08:19:06.121Z,0.6
2023-01-07T08:20:06.711Z,0.8
2023-01-07T08:21:07.345Z,0.9
2023-01-07T08:22:07.905Z,1.1
2023-01-07T08:23:08.517Z,0.9
2023-01-07T08:24:09.100Z,1.3
2023-01-07T08:25:09.695Z,1.4
2023-01-07T08:26:10.293Z,1.2
2023-01-07T08:27:10.912Z,1.3
2023-01-07T08:28:11.509Z,1.4
2023-01-07T08:29:12.131Z,6.1
2023-01-07T08:30:12.719Z,3.3
2023-01-07T08:31:13.383Z,1.8
2023-01-07T08:32:14.075Z,1.7
2023-01-07T08:33:14.598Z,2.0
2023-01-07T08:34:15.196Z,2.2
2023-01-07T08:35:15.792Z,2.1
2023-01-07T08:36:22.921Z,2.3
2023-01-07T08:37:17.981Z,2.3
2023-01-07T08:38:18.580Z,2.3
2023-01-07T08:39:19.194Z,2.3
2023-01-07T08:40:19.787Z,2.9
2023-01-07T08:41:20.387Z,2.7
2023-01-07T08:42:20.984Z,2.4
2023-01-07T08:43:21.584Z,2.4
2023-01-07T08:44:22.183Z,2.4
2023-01-07T08:45:22.778Z,2.6
2023-01-07T08:46:23.434Z,2.3
2023-01-07T08:47:24.049Z,2.4
2023-01-07T08:48:24.589Z,2.5
2023-01-07T08:49:25.187Z,2.6
2023-01-07T08:50:25.803Z,2.6
2023-01-07T08:51:26.381Z,2.5
2023-01-07T08:52:26.977Z,2.5
2023-01-07T08:53:27.573Z,2.4
2023-01-07T08:54:28.169Z,2.5
2023-01-07T08:55:28.768Z,2.8
2023-01-07T08:56:29.386Z,2.7
2023-01-07T08:57:29.987Z,2.6
2023-01-07T08:58:30.580Z,2.8
2023-01-07T08:59:31.176Z,3.0
2023-01-07T09:00:31.798Z,2.9
2023-01-07T09:01:32.543Z,2.7
2023-01-07T09:02:33.281Z,2.5
2023-01-07T09:03:33.758Z,3.0
2023-01-07T09:04:34.352Z,2.6
2023-01-07T09:05:35.421Z,2.5
2023-01-07T09:06:36.001Z,2.8
2023-01-07T09:07:36.615Z,2.7
2023-01-07T09:08:37.211Z,2.3
2023-01-07T09:09:37.805Z,2.7
2023-01-07T09:10:38.399Z,2.6
2023-01-07T09:11:39.007Z,2.9
2023-01-07T09:12:39.601Z,2.6
2023-01-07T09:13:40.192Z,2.7
2023-01-07T09:14:40.792Z,2.7
2023-01-07T09:15:41.388Z,2.8
2023-01-07T09:16:42.018Z,2.8
2023-01-07T09:17:42.664Z,2.5
2023-01-07T09:18:43.195Z,2.9
2023-01-07T09:19:43.792Z,2.7
2023-01-07T09:20:44.406Z,2.4
2023-01-07T09:21:45.007Z,2.4
2023-01-07T09:22:45.605Z,2.8
2023-01-07T09:23:46.202Z,2.4
2023-01-07T09:24:48.001Z,2.5
2023-01-07T09:25:48.388Z,2.4
2023-01-07T09:26:48.985Z,2.2
2023-01-07T09:27:49.616Z,2.6
2023-01-07T09:28:50.184Z,2.2
2023-01-07T09:29:50.785Z,2.6
2023-01-07T09:30:51.377Z,2.4
2023-01-07T09:31:52.070Z,2.9
2023-01-07T09:32:52.725Z,2.6
2023-01-07T09:33:53.302Z,2.6
2023-01-07T09:34:53.850Z,2.4
2023-01-07T09:35:54.481Z,2.8
2023-01-07T09:36:55.066Z,2.3
2023-01-07T09:37:55.668Z,2.2
2023-01-07T09:38:56.267Z,2.2
2023-01-07T09:39:56.860Z,2.1
2023-01-07T09:40:57.457Z,2.2
2023-01-07T09:41:58.057Z,2.4
2023-01-07T09:42:58.700Z,2.6
2023-01-07T09:44:01.731Z,2.3
2023-01-07T09:45:00.855Z,2.3
2023-01-07T09:46:01.533Z,2.8
2023-01-07T09:47:02.086Z,2.8
2023-01-07T09:48:02.752Z,2.4
2023-01-07T09:49:03.299Z,2.5
2023-01-07T09:50:03.903Z,2.5
2023-01-07T09:51:04.496Z,2.4
2023-01-07T09:52:05.100Z,2.3
2023-01-07T09:53:05.696Z,2.6
2023-01-07T09:54:06.296Z,2.5
2023-01-07T09:55:06.894Z,2.6
2023-01-07T09:56:11.317Z,2.2
2023-01-07T09:57:08.103Z,2.2
2023-01-07T09:58:08.701Z,2.2
2023-01-07T09:59:09.298Z,2.0
2023-01-07T10:00:09.897Z,2.1
2023-01-07T10:01:10.525Z,2.5
2023-01-07T10:02:11.220Z,1.9
2023-01-07T10:03:11.863Z,2.0
2023-01-07T10:04:12.490Z,2.0
2023-01-07T10:05:13.090Z,2.1
2023-01-07T10:06:13.688Z,1.9
2023-01-07T10:07:14.285Z,2.1
2023-01-07T10:08:29.046Z,2.1
2023-01-07T10:09:16.475Z,2.1
2023-01-07T10:10:17.095Z,1.8
2023-01-07T10:11:17.692Z,2.0
2023-01-07T10:12:18.292Z,1.9
2023-01-07T10:13:18.888Z,1.7
2023-01-07T10:14:19.486Z,1.9
2023-01-07T10:15:20.105Z,1.8
2023-01-07T10:16:20.905Z,1.7
2023-01-07T10:17:21.502Z,1.4
2023-01-07T10:18:22.163Z,1.6
2023-01-07T10:19:22.699Z,1.6
2023-01-07T10:20:23.316Z,1.6
2023-01-07T10:21:23.936Z,1.4
2023-01-07T10:22:24.519Z,1.3
2023-01-07T10:23:25.122Z,1.2
2023-01-07T10:24:25.729Z,1.2
2023-01-07T10:25:26.339Z,1.0
2023-01-07T10:26:26.925Z,0.9
2023-01-07T10:27:27.523Z,0.9
2023-01-07T10:28:28.120Z,1.4
2023-01-07T10:29:28.721Z,1.1
2023-01-07T10:30:29.337Z,1.1
2023-01-07T10:31:29.990Z,0.9
2023-01-07T10:32:30.582Z,1.1
2023-01-07T10:33:31.234Z,1.0
2023-01-07T10:34:31.777Z,0.9
2023-01-07T10:35:32.375Z,1.0
2023-01-07T10:36:32.972Z,0.8
2023-01-07T10:37:33.569Z,1.2
2023-01-07T10:38:34.179Z,1.2
2023-01-07T10:39:34.785Z,0.9
2023-01-07T10:40:35.382Z,0.8
2023-01-07T10:41:35.985Z,0.8
2023-01-07T10:42:36.608Z,0.9
2023-01-07T10:43:37.204Z,1.1
2023-01-07T10:44:37.799Z,0.8
2023-01-07T10:45:38.493Z,0.8
2023-01-07T10:46:39.045Z,0.9
2023-01-07T10:47:39.649Z,0.8
2023-01-07T10:48:40.336Z,0.8
2023-01-07T10:49:40.878Z,1.0
2023-01-07T10:50:41.491Z,0.7
2023-01-07T10:51:42.133Z,1.0
2023-01-07T10:52:42.720Z,1.0
2023-01-07T10:53:43.323Z,0.6
2023-01-07T10:54:43.924Z,0.8
2023-01-07T10:55:44.523Z,0.9
2023-01-07T10:56:45.128Z,0.7
2023-01-07T10:57:45.720Z,0.6
2023-01-07T10:58:46.320Z,0.5
2023-01-07T10:59:46.916Z,0.6
2023-01-07T11:00:47.575Z,0.6
2023-01-07T11:01:48.415Z,0.5
2023-01-07T11:02:48.869Z,0.8
2023-01-07T11:03:49.506Z,0.6
2023-01-07T11:04:50.061Z,0.7
2023-01-07T11:05:50.660Z,0.7
2023-01-07T11:06:51.268Z,0.9
2023-01-07T11:07:51.872Z,0.7
2023-01-07T11:08:52.474Z,0.6
2023-01-07T11:09:53.074Z,0.5
2023-01-07T11:10:53.676Z,0.6
2023-01-07T11:11:54.269Z,0.6
2023-01-07T11:12:54.871Z,0.6
2023-01-07T11:13:55.466Z,0.5
2023-01-07T11:14:56.077Z,0.7
2023-01-07T11:15:56.685Z,0.5
2023-01-07T11:16:57.318Z,0.6
2023-01-07T11:17:57.881Z,0.8
2023-01-07T11:18:58.566Z,0.5
2023-01-07T11:19:59.104Z,0.6
2023-01-07T11:20:59.717Z,0.4
2023-01-07T11:22:00.324Z,0.5
2023-01-07T11:23:00.937Z,0.6
2023-01-07T11:24:01.542Z,0.4
2023-01-07T11:25:02.144Z,0.6
2023-01-07T11:26:02.800Z,0.6
2023-01-07T11:27:03.407Z,0.6
2023-01-07T11:28:04.011Z,0.5
2023-01-07T11:29:04.623Z,0.6
2023-01-07T11:30:05.222Z,0.7
2023-01-07T11:31:05.817Z,0.7
2023-01-07T11:32:06.609Z,0.5
2023-01-07T11:33:07.184Z,0.6
2023-01-07T11:34:07.853Z,0.5
2023-01-07T11:35:08.380Z,0.6
2023-01-07T11:36:08.977Z,0.6
2023-01-07T11:37:09.572Z,0.5
2023-01-07T11:38:10.172Z,0.5
2023-01-07T11:39:10.794Z,0.6
2023-01-07T11:40:11.405Z,0.5
2023-01-07T11:41:11.999Z,0.6
2023-01-07T11:42:12.605Z,0.6
2023-01-07T11:43:13.194Z,0.6
2023-01-07T11:44:13.794Z,0.5
2023-01-07T11:45:14.399Z,0.5
2023-01-07T11:46:19.264Z,0.6
2023-01-07T11:47:16.597Z,0.6
2023-01-07T11:48:17.194Z,0.5
2023-01-07T11:49:17.860Z,0.5
2023-01-07T11:50:18.401Z,0.5
2023-01-07T11:51:19.003Z,2.8
2023-01-07T11:52:19.603Z,1.3
2023-01-07T11:53:20.198Z,0.7
2023-01-07T11:54:20.852Z,0.7
2023-01-07T11:55:21.419Z,0.7
2023-01-07T11:56:22.016Z,1.0
2023-01-07T11:57:22.613Z,0.9
2023-01-07T11:58:28.068Z,1.1
2023-01-07T11:59:24.807Z,1.1
2023-01-07T12:00:25.408Z,1.1
2023-01-07T12:01:26.059Z,0.9
2023-01-07T12:02:26.653Z,0.9
2023-01-07T12:03:27.280Z,0.8
2023-01-07T12:04:27.895Z,1.3
2023-01-07T12:05:28.489Z,0.9
2023-01-07T12:06:29.096Z,1.0
2023-01-07T12:07:29.686Z,1.0
2023-01-07T12:08:30.284Z,1.2
2023-01-07T12:09:30.883Z,1.4
2023-01-07T12:10:31.487Z,1.1
2023-01-07T12:11:32.081Z,1.3
2023-01-07T12:12:32.675Z,1.4
2023-01-07T12:13:33.297Z,1.5
2023-01-07T12:14:33.904Z,1.6
2023-01-07T12:15:34.504Z,1.6
2023-01-07T12:16:35.155Z,1.4
2023-01-07T12:17:35.711Z,1.2
2023-01-07T12:18:36.317Z,1.4
2023-01-07T12:19:38.536Z,1.5
2023-01-07T12:20:37.532Z,1.2
2023-01-07T12:21:38.124Z,1.5
2023-01-07T12:22:38.723Z,1.5
2023-01-07T12:23:39.361Z,1.3
2023-01-07T12:24:39.920Z,1.4
2023-01-07T12:25:40.516Z,1.5
2023-01-07T12:26:41.123Z,1.7
2023-01-07T12:27:41.711Z,1.5
2023-01-07T12:28:42.334Z,1.4
2023-01-07T12:29:42.928Z,1.7
2023-01-07T12:30:44.205Z,1.4
2023-01-07T12:31:44.233Z,1.4
2023-01-07T12:32:44.882Z,1.3
2023-01-07T12:33:45.497Z,1.3
2023-01-07T12:34:46.163Z,1.2
2023-01-07T12:35:46.715Z,1.7
2023-01-07T12:36:47.305Z,1.7
2023-01-07T12:37:47.903Z,1.3
2023-01-07T12:38:48.528Z,1.6
2023-01-07T12:39:49.133Z,1.5
2023-01-07T12:40:49.726Z,1.4
2023-01-07T12:41:50.360Z,1.5
2023-01-07T12:42:50.952Z,1.5
2023-01-07T12:43:51.557Z,1.5
2023-01-07T12:44:52.507Z,1.5
2023-01-07T12:45:53.165Z,1.5
2023-01-07T12:46:53.716Z,1.6
2023-01-07T12:47:55.306Z,1.7
2023-01-07T12:48:55.906Z,1.6
2023-01-07T12:49:56.587Z,1.4
2023-01-07T12:50:57.146Z,1.3
2023-01-07T12:51:57.729Z,1.6
2023-01-07T12:52:58.339Z,1.5
2023-01-07T12:53:58.926Z,1.4
2023-01-07T12:54:59.539Z,1.5
2023-01-07T12:56:00.174Z,1.4
2023-01-07T12:57:00.731Z,1.4
2023-01-07T12:58:01.326Z,1.3
2023-01-07T12:59:01.942Z,1.5
2023-01-07T13:00:02.548Z,1.5
2023-01-07T13:01:03.290Z,1.6
2023-01-07T13:02:03.882Z,1.6
2023-01-07T13:03:04.582Z,1.5
2023-01-07T13:04:05.203Z,1.7
2023-01-07T13:05:06.009Z,1.6
2023-01-07T13:06:06.446Z,1.5
2023-01-07T13:07:07.025Z,1.8
2023-01-07T13:08:07.620Z,1.4
2023-01-07T13:09:08.221Z,1.4
2023-01-07T13:10:08.815Z,1.8
2023-01-07T13:11:09.416Z,1.8
2023-01-07T13:12:40.913Z,1.5
2023-01-07T13:13:13.468Z,1.4
2023-01-07T13:14:12.221Z,1.2
2023-01-07T13:15:12.813Z,1.4
2023-01-07T13:16:13.502Z,1.4
2023-01-07T13:17:14.054Z,1.3
2023-01-07T13:18:14.662Z,1.3
2023-01-07T13:19:15.241Z,1.1
2023-01-07T13:20:15.907Z,1.3
2023-01-07T13:21:16.451Z,1.6
2023-01-07T13:22:17.045Z,1.3
2023-01-07T13:23:17.646Z,1.7
2023-01-07T13:24:19.156Z,1.4
2023-01-07T13:25:19.835Z,1.5
2023-01-07T13:26:20.522Z,1.6
2023-01-07T13:27:21.115Z,1.4
2023-01-07T13:28:21.747Z,1.1
2023-01-07T13:29:22.452Z,1.1
2023-01-07T13:30:23.047Z,1.3
2023-01-07T13:31:23.690Z,1.4
2023-01-07T13:32:24.262Z,1.7
2023-01-07T13:33:24.861Z,1.3
2023-01-07T13:34:25.458Z,1.2
2023-01-07T13:35:26.125Z,1.0
2023-01-07T13:36:26.668Z,1.2
2023-01-07T13:37:27.268Z,1.4
2023-01-07T13:38:27.865Z,1.2
2023-01-07T13:39:28.461Z,1.5
2023-01-07T13:40:29.059Z,1.3
2023-01-07T13:41:29.672Z,1.3
2023-01-07T13:42:30.262Z,1.4
2023-01-07T13:43:30.858Z,1.2
2023-01-07T13:44:31.456Z,1.2
2023-01-07T13:45:32.061Z,0.9
2023-01-07T13:46:32.755Z,1.1
2023-01-07T13:47:33.302Z,1.1
2023-01-07T13:48:33.903Z,1.2
2023-01-07T13:49:34.504Z,1.4
2023-01-07T13:50:35.171Z,1.1
2023-01-07T13:51:35.717Z,1.1
2023-01-07T13:52:36.323Z,1.4
2023-01-07T13:53:36.915Z,1.2
2023-01-07T13:54:37.522Z,1.1